sensor_id;sensor_type;location;lat;lon;timestamp;temperature;humidity
20200;DHT22;36284;37.236;-121.934;2024-02-15T00:00:33;13.60;99.90
20200;DHT22;36284;37.236;-121.934;2024-02-15T00:03:00;13.70;99.90
20200;DHT22;36284;37.236;-121.934;2024-02-15T00:05:27;13.50;99.90
20200;DHT22;36284;37.236;-121.934;2024-02-15T00:07:54;13.70;99.90
20200;DHT22;36284;37.236;-121.934;2024-02-15T00:10:21;13.60;99.90
20200;DHT22;36284;37.236;-121.934;2024-02-15T00:12:49;13.60;99.90
20200;DHT22;36284;37.236;-121.934;2024-02-15T00:15:17;13.40;99.90
20200;DHT22;36284;37.236;-121.934;2024-02-15T00:17:45;13.40;99.90
20200;DHT22;36284;37.236;-121.934;2024-02-15T00:20:15;13.40;99.90
20200;DHT22;36284;37.236;-121.934;2024-02-15T00:22:44;13.10;99.90
20200;DHT22;36284;37.236;-121.934;2024-02-15T00:25:11;13.00;99.90
20200;DHT22;36284;37.236;-121.934;2024-02-15T00:27:40;13.00;99.90
20200;DHT22;36284;37.236;-121.934;2024-02-15T00:30:09;13.10;99.90
20200;DHT22;36284;37.236;-121.934;2024-02-15T00:32:36;13.30;99.90
20200;DHT22;36284;37.236;-121.934;2024-02-15T00:35:04;13.30;99.90
20200;DHT22;36284;37.236;-121.934;2024-02-15T00:37:36;13.30;99.90
20200;DHT22;36284;37.236;-121.934;2024-02-15T00:40:03;13.20;99.90
20200;DHT22;36284;37.236;-121.934;2024-02-15T00:42:30;13.20;99.90
20200;DHT22;36284;37.236;-121.934;2024-02-15T00:45:00;13.30;99.90
20200;DHT22;36284;37.236;-121.934;2024-02-15T00:47:27;13.30;99.90
20200;DHT22;36284;37.236;-121.934;2024-02-15T00:49:54;13.20;99.90
20200;DHT22;36284;37.236;-121.934;2024-02-15T00:52:22;13.30;99.90
20200;DHT22;36284;37.236;-121.934;2024-02-15T00:54:50;13.30;99.90
20200;DHT22;36284;37.236;-121.934;2024-02-15T00:57:17;13.30;99.90
20200;DHT22;36284;37.236;-121.934;2024-02-15T00:59:44;13.30;99.90
20200;DHT22;36284;37.236;-121.934;2024-02-15T01:02:11;13.30;99.90
20200;DHT22;36284;37.236;-121.934;2024-02-15T01:04:39;13.30;99.90
20200;DHT22;36284;37.236;-121.934;2024-02-15T01:07:06;13.30;99.90
20200;DHT22;36284;37.236;-121.934;2024-02-15T01:09:37;13.20;99.90
20200;DHT22;36284;37.236;-121.934;2024-02-15T01:12:04;13.40;99.90
20200;DHT22;36284;37.236;-121.934;2024-02-15T01:14:31;13.40;99.90
20200;DHT22;36284;37.236;-121.934;2024-02-15T01:16:58;13.40;99.90
20200;DHT22;36284;37.236;-121.934;2024-02-15T01:19:25;13.30;99.90
20200;DHT22;36284;37.236;-121.934;2024-02-15T01:21:52;13.30;99.90
20200;DHT22;36284;37.236;-121.934;2024-02-15T01:24:20;13.30;99.90
20200;DHT22;36284;37.236;-121.934;2024-02-15T01:26:47;13.20;99.90
20200;DHT22;36284;37.236;-121.934;2024-02-15T01:29:15;13.10;99.90
20200;DHT22;36284;37.236;-121.934;2024-02-15T01:31:43;13.10;99.90
20200;DHT22;36284;37.236;-121.934;2024-02-15T01:34:10;13.00;99.90
20200;DHT22;36284;37.236;-121.934;2024-02-15T01:36:37;13.00;99.90
20200;DHT22;36284;37.236;-121.934;2024-02-15T01:39:03;13.00;99.90
20200;DHT22;36284;37.236;-121.934;2024-02-15T01:41:30;13.00;99.90
20200;DHT22;36284;37.236;-121.934;2024-02-15T01:43:58;13.00;99.90
20200;DHT22;36284;37.236;-121.934;2024-02-15T01:46:25;12.90;99.90
20200;DHT22;36284;37.236;-121.934;2024-02-15T01:48:52;12.80;99.90
20200;DHT22;36284;37.236;-121.934;2024-02-15T01:51:20;12.80;99.90
20200;DHT22;36284;37.236;-121.934;2024-02-15T01:53:47;12.60;99.90
20200;DHT22;36284;37.236;-121.934;2024-02-15T01:56:14;12.70;99.90
20200;DHT22;36284;37.236;-121.934;2024-02-15T01:58:43;12.60;99.90
20200;DHT22;36284;37.236;-121.934;2024-02-15T02:01:12;12.90;99.90
20200;DHT22;36284;37.236;-121.934;2024-02-15T02:03:40;12.70;99.90
20200;DHT22;36284;37.236;-121.934;2024-02-15T02:06:07;13.00;99.90
20200;DHT22;36284;37.236;-121.934;2024-02-15T02:08:35;12.80;99.90
20200;DHT22;36284;37.236;-121.934;2024-02-15T02:11:01;12.70;99.90
20200;DHT22;36284;37.236;-121.934;2024-02-15T02:13:30;12.60;99.90
20200;DHT22;36284;37.236;-121.934;2024-02-15T02:15:57;12.40;99.90
20200;DHT22;36284;37.236;-121.934;2024-02-15T02:18:26;12.60;99.90
20200;DHT22;36284;37.236;-121.934;2024-02-15T02:20:53;12.70;99.90
20200;DHT22;36284;37.236;-121.934;2024-02-15T02:23:26;12.60;99.90
20200;DHT22;36284;37.236;-121.934;2024-02-15T02:25:55;12.60;99.90
20200;DHT22;36284;37.236;-121.934;2024-02-15T02:28:22;12.50;99.90
20200;DHT22;36284;37.236;-121.934;2024-02-15T02:30:49;12.40;99.90
20200;DHT22;36284;37.236;-121.934;2024-02-15T02:33:16;12.60;99.90
20200;DHT22;36284;37.236;-121.934;2024-02-15T02:35:48;12.60;99.90
20200;DHT22;36284;37.236;-121.934;2024-02-15T02:38:15;12.60;99.90
20200;DHT22;36284;37.236;-121.934;2024-02-15T02:40:42;12.50;99.90
20200;DHT22;36284;37.236;-121.934;2024-02-15T02:43:09;12.60;99.90
20200;DHT22;36284;37.236;-121.934;2024-02-15T02:45:37;12.70;99.90
20200;DHT22;36284;37.236;-121.934;2024-02-15T02:48:04;12.80;99.90
20200;DHT22;36284;37.236;-121.934;2024-02-15T02:50:31;12.80;99.90
20200;DHT22;36284;37.236;-121.934;2024-02-15T02:52:58;12.70;99.90
20200;DHT22;36284;37.236;-121.934;2024-02-15T02:55:25;12.70;99.90
20200;DHT22;36284;37.236;-121.934;2024-02-15T02:57:53;12.70;99.90
20200;DHT22;36284;37.236;-121.934;2024-02-15T03:00:21;12.70;99.90
20200;DHT22;36284;37.236;-121.934;2024-02-15T03:02:48;12.60;99.90
20200;DHT22;36284;37.236;-121.934;2024-02-15T03:05:15;12.70;99.90
20200;DHT22;36284;37.236;-121.934;2024-02-15T03:07:42;12.90;99.90
20200;DHT22;36284;37.236;-121.934;2024-02-15T03:10:10;13.00;99.90
20200;DHT22;36284;37.236;-121.934;2024-02-15T03:12:40;12.90;99.90
20200;DHT22;36284;37.236;-121.934;2024-02-15T03:15:07;12.80;99.90
20200;DHT22;36284;37.236;-121.934;2024-02-15T03:17:41;12.70;99.90
20200;DHT22;36284;37.236;-121.934;2024-02-15T03:20:09;12.50;99.90
20200;DHT22;36284;37.236;-121.934;2024-02-15T03:22:57;12.60;99.90
20200;DHT22;36284;37.236;-121.934;2024-02-15T03:25:25;12.50;99.90
20200;DHT22;36284;37.236;-121.934;2024-02-15T03:27:53;12.60;99.90
20200;DHT22;36284;37.236;-121.934;2024-02-15T03:30:21;12.60;99.90
20200;DHT22;36284;37.236;-121.934;2024-02-15T03:32:48;12.60;99.90
20200;DHT22;36284;37.236;-121.934;2024-02-15T03:35:18;12.40;99.90
20200;DHT22;36284;37.236;-121.934;2024-02-15T03:37:46;12.40;99.90
20200;DHT22;36284;37.236;-121.934;2024-02-15T03:40:13;12.40;99.90
20200;DHT22;36284;37.236;-121.934;2024-02-15T03:42:40;12.40;99.90
20200;DHT22;36284;37.236;-121.934;2024-02-15T03:45:08;12.50;99.90
20200;DHT22;36284;37.236;-121.934;2024-02-15T03:47:35;12.50;99.90
20200;DHT22;36284;37.236;-121.934;2024-02-15T03:50:07;12.30;99.90
20200;DHT22;36284;37.236;-121.934;2024-02-15T03:52:37;12.40;99.90
20200;DHT22;36284;37.236;-121.934;2024-02-15T03:55:05;12.40;99.90
20200;DHT22;36284;37.236;-121.934;2024-02-15T03:57:34;12.20;99.90
20200;DHT22;36284;37.236;-121.934;2024-02-15T04:00:01;12.20;99.90
20200;DHT22;36284;37.236;-121.934;2024-02-15T04:02:28;12.20;99.90
20200;DHT22;36284;37.236;-121.934;2024-02-15T04:04:57;12.20;99.90
20200;DHT22;36284;37.236;-121.934;2024-02-15T04:07:24;12.20;99.90
20200;DHT22;36284;37.236;-121.934;2024-02-15T04:09:53;12.20;99.90
20200;DHT22;36284;37.236;-121.934;2024-02-15T04:12:20;12.20;99.90
20200;DHT22;36284;37.236;-121.934;2024-02-15T04:14:48;12.10;99.90
20200;DHT22;36284;37.236;-121.934;2024-02-15T04:17:15;12.10;99.90
20200;DHT22;36284;37.236;-121.934;2024-02-15T04:19:46;12.10;99.90
20200;DHT22;36284;37.236;-121.934;2024-02-15T04:22:14;11.90;99.90
20200;DHT22;36284;37.236;-121.934;2024-02-15T04:24:45;11.90;99.90
20200;DHT22;36284;37.236;-121.934;2024-02-15T04:27:12;11.90;99.90
20200;DHT22;36284;37.236;-121.934;2024-02-15T04:29:41;11.80;99.90
20200;DHT22;36284;37.236;-121.934;2024-02-15T04:32:10;11.80;99.90
20200;DHT22;36284;37.236;-121.934;2024-02-15T04:34:41;11.80;99.90
20200;DHT22;36284;37.236;-121.934;2024-02-15T04:37:08;11.80;99.90
20200;DHT22;36284;37.236;-121.934;2024-02-15T04:39:35;11.90;99.90
20200;DHT22;36284;37.236;-121.934;2024-02-15T04:42:03;11.90;99.90
20200;DHT22;36284;37.236;-121.934;2024-02-15T04:44:32;11.90;99.90
20200;DHT22;36284;37.236;-121.934;2024-02-15T04:47:02;11.90;99.90
20200;DHT22;36284;37.236;-121.934;2024-02-15T04:49:32;11.90;99.90
20200;DHT22;36284;37.236;-121.934;2024-02-15T04:51:59;11.90;99.90
20200;DHT22;36284;37.236;-121.934;2024-02-15T04:54:30;12.00;99.90
20200;DHT22;36284;37.236;-121.934;2024-02-15T04:56:59;12.00;99.90
20200;DHT22;36284;37.236;-121.934;2024-02-15T04:59:27;12.10;99.90
20200;DHT22;36284;37.236;-121.934;2024-02-15T05:01:56;12.00;99.90
20200;DHT22;36284;37.236;-121.934;2024-02-15T05:04:23;11.90;99.90
20200;DHT22;36284;37.236;-121.934;2024-02-15T05:06:51;11.90;99.90
20200;DHT22;36284;37.236;-121.934;2024-02-15T05:09:19;11.80;99.90
20200;DHT22;36284;37.236;-121.934;2024-02-15T05:11:46;11.80;99.90
20200;DHT22;36284;37.236;-121.934;2024-02-15T05:14:15;11.80;99.90
20200;DHT22;36284;37.236;-121.934;2024-02-15T05:16:50;11.80;99.90
20200;DHT22;36284;37.236;-121.934;2024-02-15T05:19:17;11.70;99.90
20200;DHT22;36284;37.236;-121.934;2024-02-15T05:21:45;11.80;99.90
20200;DHT22;36284;37.236;-121.934;2024-02-15T05:24:16;11.80;99.90
20200;DHT22;36284;37.236;-121.934;2024-02-15T05:26:46;11.80;99.90
20200;DHT22;36284;37.236;-121.934;2024-02-15T05:29:14;11.80;99.90
20200;DHT22;36284;37.236;-121.934;2024-02-15T05:31:41;11.80;99.90
20200;DHT22;36284;37.236;-121.934;2024-02-15T05:34:10;11.80;99.90
20200;DHT22;36284;37.236;-121.934;2024-02-15T05:36:38;11.80;99.90
20200;DHT22;36284;37.236;-121.934;2024-02-15T05:39:05;11.70;99.90
20200;DHT22;36284;37.236;-121.934;2024-02-15T05:41:33;11.70;99.90
20200;DHT22;36284;37.236;-121.934;2024-02-15T05:44:03;11.70;99.90
20200;DHT22;36284;37.236;-121.934;2024-02-15T05:46:33;11.50;99.90
20200;DHT22;36284;37.236;-121.934;2024-02-15T05:49:03;11.60;99.90
20200;DHT22;36284;37.236;-121.934;2024-02-15T05:51:31;11.60;99.90
20200;DHT22;36284;37.236;-121.934;2024-02-15T05:54:00;11.50;99.90
20200;DHT22;36284;37.236;-121.934;2024-02-15T05:56:27;11.50;99.90
20200;DHT22;36284;37.236;-121.934;2024-02-15T05:58:55;11.40;99.90
20200;DHT22;36284;37.236;-121.934;2024-02-15T06:01:23;11.40;99.90
20200;DHT22;36284;37.236;-121.934;2024-02-15T06:03:50;11.30;99.90
20200;DHT22;36284;37.236;-121.934;2024-02-15T06:06:21;11.20;99.90
20200;DHT22;36284;37.236;-121.934;2024-02-15T06:08:50;11.20;99.90
20200;DHT22;36284;37.236;-121.934;2024-02-15T06:11:20;11.20;99.90
20200;DHT22;36284;37.236;-121.934;2024-02-15T06:13:47;11.20;99.90
20200;DHT22;36284;37.236;-121.934;2024-02-15T06:16:14;11.20;99.90
20200;DHT22;36284;37.236;-121.934;2024-02-15T06:18:41;11.10;99.90
20200;DHT22;36284;37.236;-121.934;2024-02-15T06:21:08;11.30;99.90
20200;DHT22;36284;37.236;-121.934;2024-02-15T06:23:35;11.30;99.90
20200;DHT22;36284;37.236;-121.934;2024-02-15T06:26:04;11.30;99.90
20200;DHT22;36284;37.236;-121.934;2024-02-15T06:28:31;11.20;99.90
20200;DHT22;36284;37.236;-121.934;2024-02-15T06:31:17;11.20;99.90
20200;DHT22;36284;37.236;-121.934;2024-02-15T06:34:02;11.20;99.90
20200;DHT22;36284;37.236;-121.934;2024-02-15T06:36:56;11.10;99.90
20200;DHT22;36284;37.236;-121.934;2024-02-15T06:39:41;11.00;99.90
20200;DHT22;36284;37.236;-121.934;2024-02-15T06:42:09;10.90;99.90
20200;DHT22;36284;37.236;-121.934;2024-02-15T06:44:46;11.00;99.90
20200;DHT22;36284;37.236;-121.934;2024-02-15T06:47:14;10.80;99.90
20200;DHT22;36284;37.236;-121.934;2024-02-15T06:49:46;10.80;99.90
20200;DHT22;36284;37.236;-121.934;2024-02-15T06:52:13;10.80;99.90
20200;DHT22;36284;37.236;-121.934;2024-02-15T06:54:40;10.80;99.90
20200;DHT22;36284;37.236;-121.934;2024-02-15T06:57:07;10.90;99.90
20200;DHT22;36284;37.236;-121.934;2024-02-15T06:59:34;10.80;99.90
20200;DHT22;36284;37.236;-121.934;2024-02-15T07:02:01;10.90;99.90
20200;DHT22;36284;37.236;-121.934;2024-02-15T07:04:31;10.80;99.90
20200;DHT22;36284;37.236;-121.934;2024-02-15T07:06:59;10.80;99.90
20200;DHT22;36284;37.236;-121.934;2024-02-15T07:09:26;10.70;99.90
20200;DHT22;36284;37.236;-121.934;2024-02-15T07:11:53;10.80;99.90
20200;DHT22;36284;37.236;-121.934;2024-02-15T07:14:21;10.80;99.90
20200;DHT22;36284;37.236;-121.934;2024-02-15T07:16:49;10.70;99.90
20200;DHT22;36284;37.236;-121.934;2024-02-15T07:19:18;10.80;99.90
20200;DHT22;36284;37.236;-121.934;2024-02-15T07:21:45;10.90;99.90
20200;DHT22;36284;37.236;-121.934;2024-02-15T07:24:13;10.90;99.90
20200;DHT22;36284;37.236;-121.934;2024-02-15T07:26:40;10.90;99.90
20200;DHT22;36284;37.236;-121.934;2024-02-15T07:29:07;10.80;99.90
20200;DHT22;36284;37.236;-121.934;2024-02-15T07:31:34;10.80;99.90
20200;DHT22;36284;37.236;-121.934;2024-02-15T07:34:01;10.80;99.90
20200;DHT22;36284;37.236;-121.934;2024-02-15T07:36:29;10.80;99.90
20200;DHT22;36284;37.236;-121.934;2024-02-15T07:38:56;10.70;99.90
20200;DHT22;36284;37.236;-121.934;2024-02-15T07:41:27;10.70;99.90
20200;DHT22;36284;37.236;-121.934;2024-02-15T07:43:54;10.60;99.90
20200;DHT22;36284;37.236;-121.934;2024-02-15T07:46:22;10.60;99.90
20200;DHT22;36284;37.236;-121.934;2024-02-15T07:48:50;10.70;99.90
20200;DHT22;36284;37.236;-121.934;2024-02-15T07:51:19;10.60;99.90
20200;DHT22;36284;37.236;-121.934;2024-02-15T07:53:46;10.60;99.90
20200;DHT22;36284;37.236;-121.934;2024-02-15T07:56:14;10.60;99.90
20200;DHT22;36284;37.236;-121.934;2024-02-15T07:58:47;10.80;99.90
20200;DHT22;36284;37.236;-121.934;2024-02-15T08:01:14;10.70;99.90
20200;DHT22;36284;37.236;-121.934;2024-02-15T08:03:42;10.70;99.90
20200;DHT22;36284;37.236;-121.934;2024-02-15T08:06:13;10.70;99.90
20200;DHT22;36284;37.236;-121.934;2024-02-15T08:08:42;10.80;99.90
20200;DHT22;36284;37.236;-121.934;2024-02-15T08:11:13;10.70;99.90
20200;DHT22;36284;37.236;-121.934;2024-02-15T08:13:50;10.70;99.90
20200;DHT22;36284;37.236;-121.934;2024-02-15T08:16:21;10.60;99.90
20200;DHT22;36284;37.236;-121.934;2024-02-15T08:18:54;10.70;99.90
20200;DHT22;36284;37.236;-121.934;2024-02-15T08:21:28;10.60;99.90
20200;DHT22;36284;37.236;-121.934;2024-02-15T08:23:56;10.50;99.90
20200;DHT22;36284;37.236;-121.934;2024-02-15T08:26:23;10.40;99.90
20200;DHT22;36284;37.236;-121.934;2024-02-15T08:28:50;10.40;99.90
20200;DHT22;36284;37.236;-121.934;2024-02-15T08:31:17;10.30;99.90
20200;DHT22;36284;37.236;-121.934;2024-02-15T08:33:45;10.10;99.90
20200;DHT22;36284;37.236;-121.934;2024-02-15T08:36:12;10.00;99.90
20200;DHT22;36284;37.236;-121.934;2024-02-15T08:38:42;10.00;99.90
20200;DHT22;36284;37.236;-121.934;2024-02-15T08:41:12;10.10;99.90
20200;DHT22;36284;37.236;-121.934;2024-02-15T08:43:39;9.90;99.90
20200;DHT22;36284;37.236;-121.934;2024-02-15T08:46:08;9.80;99.90
20200;DHT22;36284;37.236;-121.934;2024-02-15T08:48:35;9.80;99.90
20200;DHT22;36284;37.236;-121.934;2024-02-15T08:51:02;9.80;99.90
20200;DHT22;36284;37.236;-121.934;2024-02-15T08:53:30;9.60;99.90
20200;DHT22;36284;37.236;-121.934;2024-02-15T08:55:58;9.50;99.90
20200;DHT22;36284;37.236;-121.934;2024-02-15T08:58:25;9.60;99.90
20200;DHT22;36284;37.236;-121.934;2024-02-15T09:00:53;9.40;99.90
20200;DHT22;36284;37.236;-121.934;2024-02-15T09:03:20;9.50;99.90
20200;DHT22;36284;37.236;-121.934;2024-02-15T09:05:47;9.50;99.90
20200;DHT22;36284;37.236;-121.934;2024-02-15T09:08:14;9.40;99.90
20200;DHT22;36284;37.236;-121.934;2024-02-15T09:10:42;9.30;99.90
20200;DHT22;36284;37.236;-121.934;2024-02-15T09:13:09;9.30;99.90
20200;DHT22;36284;37.236;-121.934;2024-02-15T09:15:36;9.30;99.90
20200;DHT22;36284;37.236;-121.934;2024-02-15T09:18:03;9.30;99.90
20200;DHT22;36284;37.236;-121.934;2024-02-15T09:20:30;9.20;99.90
20200;DHT22;36284;37.236;-121.934;2024-02-15T09:22:58;9.20;99.90
20200;DHT22;36284;37.236;-121.934;2024-02-15T09:25:30;9.10;99.90
20200;DHT22;36284;37.236;-121.934;2024-02-15T09:27:58;9.10;99.90
20200;DHT22;36284;37.236;-121.934;2024-02-15T09:30:24;9.00;99.90
20200;DHT22;36284;37.236;-121.934;2024-02-15T09:32:54;9.00;99.90
20200;DHT22;36284;37.236;-121.934;2024-02-15T09:35:21;8.80;99.90
20200;DHT22;36284;37.236;-121.934;2024-02-15T09:37:49;8.70;99.90
20200;DHT22;36284;37.236;-121.934;2024-02-15T09:40:17;8.70;99.90
20200;DHT22;36284;37.236;-121.934;2024-02-15T09:42:45;8.60;99.90
20200;DHT22;36284;37.236;-121.934;2024-02-15T09:45:14;8.70;99.90
20200;DHT22;36284;37.236;-121.934;2024-02-15T09:47:45;8.70;99.90
20200;DHT22;36284;37.236;-121.934;2024-02-15T09:50:13;8.50;99.90
20200;DHT22;36284;37.236;-121.934;2024-02-15T09:52:44;8.50;99.90
20200;DHT22;36284;37.236;-121.934;2024-02-15T09:55:12;8.40;99.90
20200;DHT22;36284;37.236;-121.934;2024-02-15T09:57:42;8.40;99.90
20200;DHT22;36284;37.236;-121.934;2024-02-15T10:00:10;8.60;99.90
20200;DHT22;36284;37.236;-121.934;2024-02-15T10:02:46;8.60;99.90
20200;DHT22;36284;37.236;-121.934;2024-02-15T10:05:13;8.60;99.90
20200;DHT22;36284;37.236;-121.934;2024-02-15T10:07:44;8.60;99.90
20200;DHT22;36284;37.236;-121.934;2024-02-15T10:10:24;8.50;99.90
20200;DHT22;36284;37.236;-121.934;2024-02-15T10:12:53;8.40;99.90
20200;DHT22;36284;37.236;-121.934;2024-02-15T10:15:39;8.40;99.90
20200;DHT22;36284;37.236;-121.934;2024-02-15T10:18:11;8.30;99.90
20200;DHT22;36284;37.236;-121.934;2024-02-15T10:20:42;8.20;99.90
20200;DHT22;36284;37.236;-121.934;2024-02-15T10:23:14;8.20;99.90
20200;DHT22;36284;37.236;-121.934;2024-02-15T10:25:43;8.20;99.90
20200;DHT22;36284;37.236;-121.934;2024-02-15T10:28:11;8.10;99.90
20200;DHT22;36284;37.236;-121.934;2024-02-15T10:30:41;7.90;99.90
20200;DHT22;36284;37.236;-121.934;2024-02-15T10:33:26;8.00;99.90
20200;DHT22;36284;37.236;-121.934;2024-02-15T10:36:06;8.00;99.90
20200;DHT22;36284;37.236;-121.934;2024-02-15T10:38:40;8.00;99.90
20200;DHT22;36284;37.236;-121.934;2024-02-15T10:41:08;7.80;99.90
20200;DHT22;36284;37.236;-121.934;2024-02-15T10:43:37;7.80;99.90
20200;DHT22;36284;37.236;-121.934;2024-02-15T10:46:04;7.90;99.90
20200;DHT22;36284;37.236;-121.934;2024-02-15T10:48:36;7.90;99.90
20200;DHT22;36284;37.236;-121.934;2024-02-15T10:51:09;8.00;99.90
20200;DHT22;36284;37.236;-121.934;2024-02-15T10:53:42;7.90;99.90
20200;DHT22;36284;37.236;-121.934;2024-02-15T10:56:26;7.90;99.90
20200;DHT22;36284;37.236;-121.934;2024-02-15T10:59:20;7.80;99.90
20200;DHT22;36284;37.236;-121.934;2024-02-15T11:01:49;7.70;99.90
20200;DHT22;36284;37.236;-121.934;2024-02-15T11:04:19;7.60;99.90
20200;DHT22;36284;37.236;-121.934;2024-02-15T11:06:50;7.60;99.90
20200;DHT22;36284;37.236;-121.934;2024-02-15T11:09:17;7.60;99.90
20200;DHT22;36284;37.236;-121.934;2024-02-15T11:14:28;7.50;99.90
20200;DHT22;36284;37.236;-121.934;2024-02-15T11:16:56;7.50;99.90
20200;DHT22;36284;37.236;-121.934;2024-02-15T11:22:10;7.50;99.90
20200;DHT22;36284;37.236;-121.934;2024-02-15T11:24:49;7.50;99.90
20200;DHT22;36284;37.236;-121.934;2024-02-15T11:27:28;7.40;99.90
20200;DHT22;36284;37.236;-121.934;2024-02-15T11:29:56;7.50;99.90
20200;DHT22;36284;37.236;-121.934;2024-02-15T11:32:39;7.50;99.90
20200;DHT22;36284;37.236;-121.934;2024-02-15T11:35:07;7.50;99.90
20200;DHT22;36284;37.236;-121.934;2024-02-15T11:40:26;7.50;99.90
20200;DHT22;36284;37.236;-121.934;2024-02-15T11:43:01;7.40;99.90
20200;DHT22;36284;37.236;-121.934;2024-02-15T11:45:30;7.40;99.90
20200;DHT22;36284;37.236;-121.934;2024-02-15T11:48:08;7.30;99.90
20200;DHT22;36284;37.236;-121.934;2024-02-15T11:50:39;7.30;99.90
20200;DHT22;36284;37.236;-121.934;2024-02-15T11:53:07;7.10;99.90
20200;DHT22;36284;37.236;-121.934;2024-02-15T11:55:38;7.10;99.90
20200;DHT22;36284;37.236;-121.934;2024-02-15T11:58:07;7.10;99.90
20200;DHT22;36284;37.236;-121.934;2024-02-15T12:00:37;7.30;99.90
20200;DHT22;36284;37.236;-121.934;2024-02-15T12:03:23;7.30;99.90
20200;DHT22;36284;37.236;-121.934;2024-02-15T12:06:08;7.40;99.90
20200;DHT22;36284;37.236;-121.934;2024-02-15T12:08:54;7.60;99.90
20200;DHT22;36284;37.236;-121.934;2024-02-15T12:11:43;7.70;99.90
20200;DHT22;36284;37.236;-121.934;2024-02-15T12:14:28;7.40;99.90
20200;DHT22;36284;37.236;-121.934;2024-02-15T12:17:13;7.30;99.90
20200;DHT22;36284;37.236;-121.934;2024-02-15T12:20:03;7.20;99.90
20200;DHT22;36284;37.236;-121.934;2024-02-15T12:22:43;7.10;99.90
20200;DHT22;36284;37.236;-121.934;2024-02-15T12:25:16;7.00;99.90
20200;DHT22;36284;37.236;-121.934;2024-02-15T12:27:44;7.00;99.90
20200;DHT22;36284;37.236;-121.934;2024-02-15T12:30:17;7.00;99.90
20200;DHT22;36284;37.236;-121.934;2024-02-15T12:35:19;7.00;99.90
20200;DHT22;36284;37.236;-121.934;2024-02-15T12:38:02;6.80;99.90
20200;DHT22;36284;37.236;-121.934;2024-02-15T12:40:38;6.80;99.90
20200;DHT22;36284;37.236;-121.934;2024-02-15T12:43:08;6.80;99.90
20200;DHT22;36284;37.236;-121.934;2024-02-15T12:45:39;6.90;99.90
20200;DHT22;36284;37.236;-121.934;2024-02-15T12:48:08;6.80;99.90
20200;DHT22;36284;37.236;-121.934;2024-02-15T12:50:36;6.70;99.90
20200;DHT22;36284;37.236;-121.934;2024-02-15T12:53:03;6.60;99.90
20200;DHT22;36284;37.236;-121.934;2024-02-15T12:55:30;6.60;99.90
20200;DHT22;36284;37.236;-121.934;2024-02-15T12:58:01;6.50;99.90
20200;DHT22;36284;37.236;-121.934;2024-02-15T13:00:35;6.50;99.90
20200;DHT22;36284;37.236;-121.934;2024-02-15T13:03:07;6.70;99.90
20200;DHT22;36284;37.236;-121.934;2024-02-15T13:05:38;6.60;99.90
20200;DHT22;36284;37.236;-121.934;2024-02-15T13:08:05;6.60;99.90
20200;DHT22;36284;37.236;-121.934;2024-02-15T13:10:36;6.50;99.90
20200;DHT22;36284;37.236;-121.934;2024-02-15T13:13:05;6.60;99.90
20200;DHT22;36284;37.236;-121.934;2024-02-15T13:15:40;6.70;99.90
20200;DHT22;36284;37.236;-121.934;2024-02-15T13:18:07;6.80;99.90
20200;DHT22;36284;37.236;-121.934;2024-02-15T13:20:37;6.70;99.90
20200;DHT22;36284;37.236;-121.934;2024-02-15T13:25:36;6.50;99.90
20200;DHT22;36284;37.236;-121.934;2024-02-15T13:28:04;6.50;99.90
20200;DHT22;36284;37.236;-121.934;2024-02-15T13:30:32;6.60;99.90
20200;DHT22;36284;37.236;-121.934;2024-02-15T13:32:59;6.60;99.90
20200;DHT22;36284;37.236;-121.934;2024-02-15T13:35:26;6.50;99.90
20200;DHT22;36284;37.236;-121.934;2024-02-15T13:37:54;6.50;99.90
20200;DHT22;36284;37.236;-121.934;2024-02-15T13:40:25;6.40;99.90
20200;DHT22;36284;37.236;-121.934;2024-02-15T13:42:57;6.40;99.90
20200;DHT22;36284;37.236;-121.934;2024-02-15T13:45:33;6.40;99.90
20200;DHT22;36284;37.236;-121.934;2024-02-15T13:48:04;6.40;99.90
20200;DHT22;36284;37.236;-121.934;2024-02-15T13:50:31;6.40;99.90
20200;DHT22;36284;37.236;-121.934;2024-02-15T13:52:59;6.40;99.90
20200;DHT22;36284;37.236;-121.934;2024-02-15T13:55:26;6.50;99.90
20200;DHT22;36284;37.236;-121.934;2024-02-15T13:57:54;6.40;99.90
20200;DHT22;36284;37.236;-121.934;2024-02-15T14:00:25;6.50;99.90
20200;DHT22;36284;37.236;-121.934;2024-02-15T14:02:57;6.50;99.90
20200;DHT22;36284;37.236;-121.934;2024-02-15T14:05:26;6.50;99.90
20200;DHT22;36284;37.236;-121.934;2024-02-15T14:07:57;6.50;99.90
20200;DHT22;36284;37.236;-121.934;2024-02-15T14:10:28;6.60;99.90
20200;DHT22;36284;37.236;-121.934;2024-02-15T14:12:56;6.50;99.90
20200;DHT22;36284;37.236;-121.934;2024-02-15T14:15:31;6.30;99.90
20200;DHT22;36284;37.236;-121.934;2024-02-15T14:18:05;6.30;99.90
20200;DHT22;36284;37.236;-121.934;2024-02-15T14:20:32;6.20;99.90
20200;DHT22;36284;37.236;-121.934;2024-02-15T14:22:59;6.10;99.90
20200;DHT22;36284;37.236;-121.934;2024-02-15T14:25:32;6.10;99.90
20200;DHT22;36284;37.236;-121.934;2024-02-15T14:27:59;6.10;99.90
20200;DHT22;36284;37.236;-121.934;2024-02-15T14:30:27;6.20;99.90
20200;DHT22;36284;37.236;-121.934;2024-02-15T14:33:12;6.30;99.90
20200;DHT22;36284;37.236;-121.934;2024-02-15T14:35:42;6.30;99.90
20200;DHT22;36284;37.236;-121.934;2024-02-15T14:38:10;6.20;99.90
20200;DHT22;36284;37.236;-121.934;2024-02-15T14:40:42;6.20;99.90
20200;DHT22;36284;37.236;-121.934;2024-02-15T14:43:11;6.20;99.90
20200;DHT22;36284;37.236;-121.934;2024-02-15T14:45:40;6.20;99.90
20200;DHT22;36284;37.236;-121.934;2024-02-15T14:48:10;6.10;99.90
20200;DHT22;36284;37.236;-121.934;2024-02-15T14:50:37;6.20;99.90
20200;DHT22;36284;37.236;-121.934;2024-02-15T14:53:05;6.30;99.90
20200;DHT22;36284;37.236;-121.934;2024-02-15T14:55:37;6.60;99.90
20200;DHT22;36284;37.236;-121.934;2024-02-15T14:58:11;6.60;99.90
20200;DHT22;36284;37.236;-121.934;2024-02-15T15:00:42;6.70;99.90
20200;DHT22;36284;37.236;-121.934;2024-02-15T15:03:11;6.80;99.90
20200;DHT22;36284;37.236;-121.934;2024-02-15T15:05:40;6.80;99.90
20200;DHT22;36284;37.236;-121.934;2024-02-15T15:08:25;6.90;99.90
20200;DHT22;36284;37.236;-121.934;2024-02-15T15:11:10;6.90;99.90
20200;DHT22;36284;37.236;-121.934;2024-02-15T15:14:06;7.00;99.90
20200;DHT22;36284;37.236;-121.934;2024-02-15T15:16:33;7.00;99.90
20200;DHT22;36284;37.236;-121.934;2024-02-15T15:19:00;7.10;99.90
20200;DHT22;36284;37.236;-121.934;2024-02-15T15:21:27;7.10;99.90